General Aviation Weather

Text Reports

Enter one or more of the following location identifiers separated by a space:

Zip Code, Four-Character ICAO or Three-Character IATA airport codes.

METAR - Aviation Routine Weather Report
KSLG - Siloam Springs, Arkansas
Updated at 4:55 PM GMT on August 30, 2014 (11:55 AM CDT):
METAR KSLG 301655Z AUTO 21007KT 10SM BKN020 OVC027 27/19 A3001 RMK AO1 LTG DSNT E
TAF - Terminal Area Forecast
KSLG - Siloam Springs, Arkansas
Updated at 4:55 PM GMT on August 30, 2014 (11:55 AM CDT):
No TAF is currently available for this location.
Decoded:
No decoded TAF is available.
PIREP - Pilot Weather Report
KSLG - Siloam Springs, Arkansas
Updated at 4:55 PM GMT on August 30, 2014 (11:55 AM CDT):
No PIREP is currently available for this location.
AIRMET - Airmens Meteorological Information
KSLG - Siloam Springs, Arkansas
Updated at 4:55 PM GMT on August 30, 2014 (11:55 AM CDT):
No AIRMET is currently available for this location.
SIGMET - Significant Meteorological Information
KSLG - Siloam Springs, Arkansas
Updated at 4:55 PM GMT on August 30, 2014 (11:55 AM CDT):
No SIGMET is currently available for this location.
NOTAM - Notice to Airmen
KSLG - Siloam Springs, Arkansas
Updated at 4:55 PM GMT on August 30, 2014 (11:55 AM CDT):
No NOTAM is currently available for this location.
Forecast Area
KSLG - Siloam Springs, Arkansas
Updated at 4:55 PM GMT on August 30, 2014 (11:55 AM CDT):
No NOTAM is currently available for this location.
Aviation Weather Maps